createdAt,value
2019-04-21T00:00:25.992Z,92.20
2019-04-21T00:02:55.426Z,93.60
2019-04-21T00:05:49.689Z,93.10
2019-04-21T00:08:29.591Z,92.50
2019-04-21T00:14:11.428Z,93.10
2019-04-21T00:16:36.832Z,93.70
2019-04-21T00:19:10.288Z,93.70
2019-04-21T00:21:40.471Z,94.90
2019-04-21T00:24:29.018Z,95.10
2019-04-21T00:27:05.615Z,95.50
2019-04-21T00:29:38.509Z,96.40
2019-04-21T00:32:01.707Z,97.00
2019-04-21T00:34:17.848Z,96.90
2019-04-21T00:40:06.474Z,96.80
2019-04-21T00:42:30.225Z,95.70
2019-04-21T00:44:58.939Z,95.40
2019-04-21T00:47:34.742Z,95.90
2019-04-21T00:53:43.430Z,95.20
2019-04-21T00:56:16.669Z,95.90
2019-04-21T00:58:47.908Z,96.60
2019-04-21T01:01:16.143Z,96.10
2019-04-21T01:03:47.380Z,97.30
2019-04-21T01:08:54.320Z,97.30
2019-04-21T01:11:29.788Z,97.20
2019-04-21T01:14:00.726Z,98.50
2019-04-21T01:16:30.186Z,99.40
2019-04-21T01:18:50.480Z,99.90
2019-04-21T01:21:13.354Z,99.90
2019-04-21T01:23:33.639Z,99.80
2019-04-21T01:26:18.373Z,99.90
2019-04-21T01:28:50.851Z,99.90
2019-04-21T01:31:17.520Z,99.90
2019-04-21T01:33:56.307Z,99.90
2019-04-21T01:36:18.182Z,99.90
2019-04-21T01:38:53.771Z,99.90
2019-04-21T01:41:29.259Z,99.90
2019-04-21T01:43:53.525Z,99.90
2019-04-21T01:46:21.430Z,99.80
2019-04-21T01:48:49.529Z,99.90
2019-04-21T01:51:23.523Z,99.90
2019-04-21T01:54:03.545Z,99.90
2019-04-21T01:56:36.538Z,99.90
2019-04-21T01:58:53.839Z,99.90
2019-04-21T02:01:37.166Z,99.90
2019-04-21T02:04:02.811Z,99.90
2019-04-21T02:06:33.389Z,99.90
2019-04-21T02:09:04.912Z,99.90
2019-04-21T02:11:35.488Z,99.90
2019-04-21T02:14:23.686Z,99.90
2019-04-21T02:16:34.551Z,99.90
2019-04-21T02:19:08.398Z,99.90
2019-04-21T02:21:31.801Z,99.90
2019-04-21T02:24:12.240Z,99.90
2019-04-21T02:26:41.558Z,99.90
2019-04-21T02:29:31.394Z,99.90
2019-04-21T02:31:57.108Z,99.90
2019-04-21T02:36:58.924Z,99.90
2019-04-21T02:39:19.274Z,99.90
2019-04-21T02:44:16.704Z,99.90
2019-04-21T02:46:50.471Z,99.90
2019-04-21T02:49:22.948Z,99.90
2019-04-21T02:54:45.824Z,99.90
2019-04-21T02:56:53.090Z,99.90
2019-04-21T02:59:42.614Z,99.90
2019-04-21T03:02:24.692Z,99.90
2019-04-21T03:04:53.152Z,99.90
2019-04-21T03:07:34.664Z,99.90
2019-04-21T03:10:00.184Z,99.90
2019-04-21T03:12:28.869Z,99.90
2019-04-21T03:15:03.622Z,99.90
2019-04-21T03:20:00.301Z,99.90
2019-04-21T03:37:42.365Z,99.90
2019-04-21T03:40:03.249Z,99.90
2019-04-21T03:42:42.398Z,99.90
2019-04-21T03:45:04.727Z,99.90
2019-04-21T03:47:32.483Z,99.90
2019-04-21T03:50:24.279Z,99.90
2019-04-21T03:52:39.290Z,99.90
2019-04-21T03:55:51.436Z,99.90
2019-04-21T04:01:00.602Z,99.90
2019-04-21T04:06:03.137Z,99.90
2019-04-21T04:08:44.774Z,99.90
2019-04-21T04:11:04.795Z,99.90
2019-04-21T04:13:37.275Z,99.90
2019-04-21T04:16:06.884Z,99.90
2019-04-21T04:18:39.211Z,99.90
2019-04-21T04:21:03.620Z,99.90
2019-04-21T04:23:31.367Z,99.90
2019-04-21T04:25:59.020Z,99.90
2019-04-21T04:33:43.071Z,99.90
2019-04-21T04:36:13.053Z,99.90
2019-04-21T04:41:28.914Z,99.90
2019-04-21T04:43:44.639Z,99.90
2019-04-21T04:46:33.390Z,99.90
2019-04-21T04:48:55.029Z,99.90
2019-04-21T04:51:12.318Z,99.90
2019-04-21T04:53:48.787Z,99.90
2019-04-21T04:56:26.040Z,99.90
2019-04-21T04:59:30.003Z,99.90
2019-04-21T05:01:28.959Z,99.90
2019-04-21T05:03:50.977Z,99.90
2019-04-21T05:09:03.347Z,99.90
2019-04-21T05:14:03.051Z,99.90
2019-04-21T05:16:36.354Z,99.90
2019-04-21T05:19:04.146Z,99.90
2019-04-21T05:21:30.702Z,99.90
2019-04-21T05:23:46.968Z,99.90
2019-04-21T05:26:10.869Z,99.90
2019-04-21T05:28:43.843Z,99.90
2019-04-21T05:31:27.084Z,99.90
2019-04-21T05:34:01.745Z,99.90
2019-04-21T05:36:27.794Z,99.90
2019-04-21T05:39:01.361Z,99.90
2019-04-21T05:41:23.193Z,99.90
2019-04-21T05:44:03.843Z,99.90
2019-04-21T05:47:15.969Z,99.90
2019-04-21T05:49:52.473Z,99.90
2019-04-21T05:52:19.846Z,99.90
2019-04-21T05:54:55.710Z,99.90
2019-04-21T05:57:22.234Z,99.90
2019-04-21T06:00:08.784Z,99.90
2019-04-21T06:02:22.233Z,99.90
2019-04-21T06:07:25.470Z,99.90
2019-04-21T06:09:57.191Z,99.90
2019-04-21T06:12:21.198Z,99.90
2019-04-21T06:14:54.570Z,99.90
2019-04-21T06:17:31.476Z,99.90
2019-04-21T06:19:57.143Z,99.90
2019-04-21T06:22:39.672Z,99.90
2019-04-21T06:25:20.896Z,99.90
2019-04-21T06:27:40.698Z,99.90
2019-04-21T06:29:55.790Z,99.90
2019-04-21T06:32:46.020Z,99.90
2019-04-21T06:42:28.414Z,99.90
2019-04-21T06:47:36.177Z,99.90
2019-04-21T06:50:18.580Z,99.90
2019-04-21T06:52:46.473Z,99.90
2019-04-21T06:55:12.563Z,99.90
2019-04-21T06:57:34.784Z,99.90
2019-04-21T06:59:57.440Z,99.90
2019-04-21T07:05:02.359Z,99.90
2019-04-21T07:07:32.993Z,99.90
2019-04-21T07:10:04.827Z,99.90
2019-04-21T07:12:30.942Z,99.90
2019-04-21T07:15:13.326Z,99.90
2019-04-21T07:22:35.467Z,99.90
2019-04-21T07:25:02.964Z,99.90
2019-04-21T07:28:03.075Z,99.90
2019-04-21T07:30:35.180Z,99.90
2019-04-21T07:33:21.964Z,99.90
2019-04-21T07:35:32.790Z,99.90
2019-04-21T07:38:05.120Z,99.90
2019-04-21T07:40:27.675Z,99.90
2019-04-21T07:42:58.472Z,99.90
2019-04-21T07:45:33.484Z,99.90
2019-04-21T07:48:24.698Z,99.90
2019-04-21T07:50:57.462Z,99.90
2019-04-21T07:53:51.031Z,99.90
2019-04-21T07:55:53.717Z,99.90
2019-04-21T07:58:51.095Z,99.90
2019-04-21T08:01:12.073Z,99.90
2019-04-21T08:03:38.725Z,99.90
2019-04-21T08:06:12.567Z,99.90
2019-04-21T08:08:42.940Z,99.90
2019-04-21T08:11:12.247Z,99.90
2019-04-21T08:13:45.518Z,99.90
2019-04-21T08:16:12.812Z,99.90
2019-04-21T08:18:39.468Z,99.90
2019-04-21T08:22:18.566Z,99.90
2019-04-21T08:24:35.109Z,99.90
2019-04-21T08:27:11.028Z,99.90
2019-04-21T08:32:07.959Z,99.90
2019-04-21T08:34:35.440Z,99.90
2019-04-21T08:37:08.689Z,99.90
2019-04-21T08:39:45.513Z,99.90
2019-04-21T08:42:08.558Z,99.90
2019-04-21T08:47:07.246Z,99.90
2019-04-21T08:49:36.337Z,99.90
2019-04-21T08:52:15.239Z,99.90
2019-04-21T08:54:43.911Z,99.90
2019-04-21T08:57:10.087Z,99.90
2019-04-21T09:00:01.415Z,99.90
2019-04-21T09:02:35.365Z,99.80
2019-04-21T09:04:58.703Z,99.90
2019-04-21T09:07:36.281Z,99.90
2019-04-21T09:09:57.193Z,99.40
2019-04-21T09:12:33.139Z,99.40
2019-04-21T09:15:01.206Z,99.50
2019-04-21T09:17:26.288Z,99.50
2019-04-21T09:20:10.652Z,99.10
2019-04-21T09:22:29.817Z,98.70
2019-04-21T09:25:01.647Z,97.40
2019-04-21T09:27:35.673Z,97.30
2019-04-21T09:29:50.205Z,96.30
2019-04-21T09:32:20.309Z,97.00
2019-04-21T09:34:47.042Z,97.80
2019-04-21T09:37:26.853Z,95.20
2019-04-21T09:39:48.784Z,96.20
2019-04-21T09:42:16.776Z,95.70
2019-04-21T09:45:22.353Z,95.50
2019-04-21T09:47:57.099Z,94.80
2019-04-21T09:50:19.848Z,94.70
2019-04-21T09:52:54.329Z,94.70
2019-04-21T09:55:22.560Z,92.70
2019-04-21T09:57:55.103Z,93.70
2019-04-21T10:00:29.319Z,92.40
2019-04-21T10:03:02.941Z,91.50
2019-04-21T10:05:27.306Z,91.70
2019-04-21T10:07:55.831Z,91.50
2019-04-21T10:10:25.286Z,90.80
2019-04-21T10:12:54.013Z,90.10
2019-04-21T10:15:48.624Z,90.00
2019-04-21T10:18:21.701Z,90.50
2019-04-21T10:20:51.189Z,87.30
2019-04-21T10:23:21.167Z,85.80
2019-04-21T10:25:50.579Z,88.10
2019-04-21T10:28:58.625Z,84.90
2019-04-21T10:31:24.932Z,82.60
2019-04-21T10:33:54.458Z,82.90
2019-04-21T10:36:23.095Z,81.10
2019-04-21T10:38:53.515Z,83.20
2019-04-21T10:41:21.725Z,82.50
2019-04-21T10:43:51.391Z,81.10
2019-04-21T10:46:19.963Z,79.10
2019-04-21T10:48:48.639Z,80.40
2019-04-21T10:51:17.240Z,78.60
2019-04-21T10:53:50.824Z,78.80
2019-04-21T10:56:25.151Z,75.20
2019-04-21T10:58:47.732Z,75.70
2019-04-21T11:01:21.035Z,74.10
2019-04-21T11:03:51.199Z,72.40
2019-04-21T11:06:21.041Z,72.60
2019-04-21T11:08:53.888Z,72.90
2019-04-21T11:11:21.670Z,73.40
2019-04-21T11:13:50.695Z,71.90
2019-04-21T11:16:19.318Z,70.60
2019-04-21T11:18:48.763Z,68.70
2019-04-21T11:21:17.208Z,67.00
2019-04-21T11:23:45.895Z,66.70
2019-04-21T11:26:15.899Z,65.60
2019-04-21T11:28:45.203Z,62.50
2019-04-21T11:31:15.346Z,62.90
2019-04-21T11:33:45.256Z,66.70
2019-04-21T11:36:15.498Z,64.70
2019-04-21T11:39:06.040Z,64.60
2019-04-21T11:41:21.778Z,64.30
2019-04-21T11:43:50.838Z,60.70
2019-04-21T11:46:20.506Z,61.70
2019-04-21T11:48:50.311Z,59.50
2019-04-21T11:51:19.244Z,58.70
2019-04-21T11:53:48.800Z,58.00
2019-04-21T11:56:17.317Z,59.50
2019-04-21T11:58:45.872Z,58.90
2019-04-21T12:01:15.882Z,57.00
2019-04-21T12:03:45.446Z,57.50
2019-04-21T12:06:15.328Z,58.40
2019-04-21T12:08:48.169Z,56.70
2019-04-21T12:11:15.741Z,55.50
2019-04-21T12:13:45.733Z,55.00
2019-04-21T12:16:36.957Z,55.60
2019-04-21T12:19:07.079Z,55.10
2019-04-21T12:21:49.007Z,55.90
2019-04-21T12:24:07.020Z,54.40
2019-04-21T12:26:35.995Z,53.30
2019-04-21T12:29:06.016Z,53.60
2019-04-21T12:31:49.528Z,55.60
2019-04-21T12:34:19.469Z,54.50
2019-04-21T12:36:48.752Z,52.00
2019-04-21T12:39:18.765Z,54.20
2019-04-21T12:41:48.731Z,52.40
2019-04-21T12:44:18.427Z,52.60
2019-04-21T12:46:47.712Z,51.30
2019-04-21T12:49:17.640Z,51.00
2019-04-21T12:51:46.430Z,51.10
2019-04-21T12:54:15.454Z,50.90
2019-04-21T12:56:45.290Z,49.30
2019-04-21T12:59:14.934Z,50.10
2019-04-21T13:01:43.529Z,49.40
2019-04-21T13:04:13.402Z,49.70
2019-04-21T13:06:42.028Z,49.00
2019-04-21T13:09:14.164Z,49.40
2019-04-21T13:11:41.378Z,48.40
2019-04-21T13:14:09.915Z,48.40
2019-04-21T13:16:39.234Z,49.30
2019-04-21T13:19:09.219Z,48.00
2019-04-21T13:21:38.195Z,48.10
2019-04-21T13:24:07.200Z,46.50
2019-04-21T13:27:22.558Z,46.50
2019-04-21T13:29:52.365Z,46.40
2019-04-21T13:32:20.893Z,47.70
2019-04-21T13:34:50.808Z,45.80
2019-04-21T13:37:19.628Z,45.50
2019-04-21T13:40:27.510Z,45.40
2019-04-21T13:42:45.356Z,46.00
2019-04-21T13:45:12.043Z,47.80
2019-04-21T13:47:40.811Z,46.30
2019-04-21T13:50:11.036Z,45.20
2019-04-21T13:52:40.747Z,45.40
2019-04-21T13:55:09.758Z,45.90
2019-04-21T13:57:38.806Z,46.00
2019-04-21T14:00:09.390Z,45.30
2019-04-21T14:02:38.715Z,45.90
2019-04-21T14:05:11.528Z,46.50
2019-04-21T14:08:27.367Z,45.30
2019-04-21T14:10:55.909Z,46.40
2019-04-21T14:13:24.643Z,46.90
2019-04-21T14:15:53.870Z,47.70
2019-04-21T14:18:22.672Z,46.20
2019-04-21T14:20:51.372Z,46.10
2019-04-21T14:23:29.910Z,46.70
2019-04-21T14:25:50.126Z,45.40
2019-04-21T14:28:19.820Z,45.90
2019-04-21T14:30:48.680Z,46.00
2019-04-21T14:33:18.292Z,46.50
2019-04-21T14:35:47.178Z,45.50
2019-04-21T14:38:16.522Z,44.80
2019-04-21T14:40:46.156Z,45.80
2019-04-21T14:43:16.321Z,44.80
2019-04-21T14:45:50.498Z,44.50
2019-04-21T14:48:29.721Z,44.90
2019-04-21T14:51:06.605Z,44.80
2019-04-21T14:54:11.731Z,44.70
2019-04-21T14:56:40.518Z,45.40
2019-04-21T14:59:09.122Z,45.20
2019-04-21T15:01:37.819Z,43.80
2019-04-21T15:04:07.895Z,44.50
2019-04-21T15:06:37.145Z,45.00
2019-04-21T15:09:09.249Z,45.10
2019-04-21T15:11:38.104Z,44.60
2019-04-21T15:14:08.064Z,44.40
2019-04-21T15:16:36.769Z,44.70
2019-04-21T15:19:06.477Z,44.90
2019-04-21T15:21:35.398Z,45.30
2019-04-21T15:24:04.632Z,45.40
2019-04-21T15:26:33.260Z,45.20
2019-04-21T15:29:02.733Z,45.10
2019-04-21T15:31:34.500Z,45.40
2019-04-21T15:34:01.481Z,45.80
2019-04-21T15:36:33.133Z,44.30
2019-04-21T15:39:01.447Z,45.00
2019-04-21T15:41:30.294Z,45.30
2019-04-21T15:44:01.276Z,43.60
2019-04-21T15:46:31.816Z,44.30
2019-04-21T15:49:02.700Z,44.20
2019-04-21T15:51:31.684Z,44.30
2019-04-21T15:54:12.321Z,44.30
2019-04-21T15:56:56.597Z,42.30
2019-04-21T15:59:26.742Z,43.40
2019-04-21T16:02:02.570Z,45.80
2019-04-21T16:04:31.016Z,44.00
2019-04-21T16:06:59.554Z,44.60
2019-04-21T16:09:30.393Z,44.80
2019-04-21T16:11:59.879Z,45.00
2019-04-21T16:14:29.036Z,46.50
2019-04-21T16:17:37.442Z,46.60
2019-04-21T16:20:08.017Z,46.30
2019-04-21T16:22:36.870Z,46.90
2019-04-21T16:25:08.634Z,46.50
2019-04-21T16:27:57.176Z,43.40
2019-04-21T16:30:26.004Z,44.80
2019-04-21T16:32:54.522Z,45.30
2019-04-21T16:35:23.464Z,45.80
2019-04-21T16:37:54.321Z,43.60
2019-04-21T16:40:23.392Z,46.00
2019-04-21T16:42:52.193Z,45.70
2019-04-21T16:45:39.133Z,45.40
2019-04-21T16:48:07.656Z,46.20
2019-04-21T16:50:37.366Z,46.20
2019-04-21T16:53:24.001Z,45.60
2019-04-21T16:56:04.778Z,45.60
2019-04-21T16:58:52.977Z,46.50
2019-04-21T17:01:26.214Z,46.40
2019-04-21T17:03:55.810Z,46.80
2019-04-21T17:06:24.973Z,46.70
2019-04-21T17:08:54.629Z,46.30
2019-04-21T17:11:27.370Z,45.00
2019-04-21T17:13:54.291Z,46.80
2019-04-21T17:19:01.914Z,46.10
2019-04-21T17:21:23.848Z,47.00
2019-04-21T17:23:52.486Z,47.70
2019-04-21T17:26:21.369Z,47.50
2019-04-21T17:28:54.330Z,47.60
2019-04-21T17:31:22.848Z,47.50
2019-04-21T17:33:57.833Z,48.10
2019-04-21T17:36:23.113Z,48.70
2019-04-21T17:38:52.282Z,48.80
2019-04-21T17:41:27.879Z,49.30
2019-04-21T17:43:52.505Z,49.00
2019-04-21T17:46:30.310Z,48.80
2019-04-21T17:48:52.628Z,49.10
2019-04-21T17:51:39.445Z,48.90
2019-04-21T17:54:44.806Z,49.40
2019-04-21T17:57:26.130Z,48.80
2019-04-21T18:00:04.127Z,49.40
2019-04-21T18:02:29.825Z,49.20
2019-04-21T18:05:03.763Z,49.80
2019-04-21T18:07:31.451Z,50.30
2019-04-21T18:12:29.179Z,50.30
2019-04-21T18:16:06.659Z,51.70
2019-04-21T18:18:23.125Z,51.00
2019-04-21T18:20:54.986Z,51.80
2019-04-21T18:23:42.228Z,52.30
2019-04-21T18:26:06.051Z,52.50
2019-04-21T18:28:28.506Z,52.60
2019-04-21T18:31:04.801Z,52.50
2019-04-21T18:33:38.363Z,52.00
2019-04-21T18:36:07.061Z,52.60
2019-04-21T18:39:05.658Z,52.50
2019-04-21T18:41:19.702Z,53.70
2019-04-21T18:44:13.629Z,54.30
2019-04-21T18:46:45.910Z,54.70
2019-04-21T18:48:59.627Z,53.90
2019-04-21T18:51:39.150Z,55.20
2019-04-21T18:54:22.653Z,56.00
2019-04-21T18:56:31.532Z,56.80
2019-04-21T18:59:00.570Z,56.60
2019-04-21T19:01:32.903Z,57.10
2019-04-21T19:04:05.395Z,57.70
2019-04-21T19:06:54.406Z,57.50
2019-04-21T19:09:22.977Z,59.30
2019-04-21T19:12:04.255Z,58.30
2019-04-21T19:17:29.108Z,57.10
2019-04-21T19:22:04.373Z,58.30
2019-04-21T19:27:13.978Z,58.90
2019-04-21T19:29:42.299Z,59.10
2019-04-21T19:32:14.969Z,59.10
2019-04-21T19:34:29.319Z,59.10
2019-04-21T19:37:00.703Z,58.90
2019-04-21T19:39:39.178Z,58.90
2019-04-21T19:42:03.101Z,59.50
2019-04-21T19:44:45.494Z,58.60
2019-04-21T19:47:16.684Z,59.20
2019-04-21T19:49:49.986Z,59.20
2019-04-21T19:52:05.601Z,59.40
2019-04-21T19:54:35.851Z,58.70
2019-04-21T19:56:58.969Z,58.30
2019-04-21T19:59:34.606Z,60.60
2019-04-21T20:01:58.352Z,60.10
2019-04-21T20:04:34.352Z,60.60
2019-04-21T20:07:22.111Z,61.60
2019-04-21T20:10:15.527Z,61.10
2019-04-21T20:13:02.906Z,60.60
2019-04-21T20:15:19.004Z,60.00
2019-04-21T20:17:50.060Z,58.30
2019-04-21T20:20:07.017Z,60.40
2019-04-21T20:22:40.430Z,60.40
2019-04-21T20:25:13.579Z,61.80
2019-04-21T20:27:49.384Z,61.00
2019-04-21T20:30:24.579Z,60.90
2019-04-21T20:33:05.645Z,60.70
2019-04-21T20:35:38.448Z,62.00
2019-04-21T20:37:57.667Z,61.80
2019-04-21T20:40:55.952Z,60.40
2019-04-21T20:43:40.133Z,60.40
2019-04-21T20:46:11.863Z,61.50
2019-04-21T20:48:42.886Z,62.20
2019-04-21T20:51:18.054Z,64.40
2019-04-21T20:53:47.589Z,60.60
2019-04-21T20:56:16.091Z,61.20
2019-04-21T20:58:55.848Z,61.00
2019-04-21T21:01:39.506Z,62.20
2019-04-21T21:03:56.049Z,61.70
2019-04-21T21:06:26.234Z,62.10
2019-04-21T21:08:56.823Z,64.50
2019-04-21T21:11:28.017Z,63.60
2019-04-21T21:14:03.870Z,65.40
2019-04-21T21:16:29.187Z,66.20
2019-04-21T21:21:25.590Z,65.80
2019-04-21T21:23:58.829Z,64.50
2019-04-21T21:26:47.222Z,63.70
2019-04-21T21:28:54.095Z,64.10
2019-04-21T21:31:35.717Z,63.20
2019-04-21T21:34:02.063Z,64.30
2019-04-21T21:36:26.956Z,64.80
2019-04-21T21:39:03.108Z,65.10
2019-04-21T21:41:20.011Z,64.00
2019-04-21T21:43:44.825Z,65.10
2019-04-21T21:46:28.395Z,67.90
2019-04-21T21:48:53.905Z,67.10
2019-04-21T21:51:22.821Z,66.40
2019-04-21T21:53:44.422Z,65.90
2019-04-21T21:56:14.347Z,67.00
2019-04-21T21:58:45.949Z,67.10
2019-04-21T22:01:16.730Z,67.80
2019-04-21T22:03:46.900Z,68.80
2019-04-21T22:06:19.625Z,70.60
2019-04-21T22:08:46.142Z,70.30
2019-04-21T22:11:15.847Z,70.00
2019-04-21T22:13:53.280Z,70.40
2019-04-21T22:16:17.679Z,70.60
2019-04-21T22:19:04.575Z,71.70
2019-04-21T22:21:38.595Z,72.90
2019-04-21T22:23:54.823Z,72.60
2019-04-21T22:26:15.516Z,75.10
2019-04-21T22:28:45.433Z,73.40
2019-04-21T22:31:20.645Z,73.40
2019-04-21T22:33:49.491Z,72.70
2019-04-21T22:36:29.215Z,73.90
2019-04-21T22:39:05.217Z,76.30
2019-04-21T22:41:26.657Z,75.50
2019-04-21T22:43:48.213Z,75.80
2019-04-21T22:46:15.527Z,77.70
2019-04-21T22:48:45.298Z,79.50
2019-04-21T22:51:25.394Z,81.40
2019-04-21T22:53:48.846Z,82.70
2019-04-21T22:56:20.578Z,82.70
2019-04-21T22:58:46.566Z,85.30
2019-04-21T23:01:17.769Z,85.50
2019-04-21T23:03:50.216Z,85.80
2019-04-21T23:06:21.355Z,86.20
2019-04-21T23:08:47.641Z,86.00
2019-04-21T23:11:16.726Z,84.70
2019-04-21T23:13:55.667Z,84.80
2019-04-21T23:16:22.815Z,84.50
2019-04-21T23:19:09.625Z,86.20
2019-04-21T23:21:31.682Z,87.20
2019-04-21T23:24:05.722Z,89.00
2019-04-21T23:26:37.621Z,91.40
2019-04-21T23:29:07.577Z,92.10
2019-04-21T23:31:41.767Z,92.50
2019-04-21T23:33:50.331Z,92.70
2019-04-21T23:36:24.093Z,92.00
2019-04-21T23:38:52.885Z,92.80
2019-04-21T23:41:19.454Z,93.10
2019-04-21T23:43:53.110Z,94.20
2019-04-21T23:46:25.732Z,93.30
2019-04-21T23:49:03.937Z,93.40
2019-04-21T23:51:30.135Z,93.60
2019-04-21T23:53:49.168Z,94.40
2019-04-21T23:56:21.661Z,94.90
2019-04-21T23:58:54.720Z,95.30
